Time;durP1;ratioP1;P1;durP2;ratioP2;P2;SDS_P1;SDS_P2;PMS_P1;PMS_P2;Temp;Humidity;BMP_temperature;BMP_pressure;BME280_temperature;BME280_humidity;BME280_pressure;Samples;Min_cycle;Max_cycle;Signal;HPM_P1;HPM_P2
2021/10/25 00:01:52;;;;;;;9.30;7.10;;;22.70;35.80;;;;;;4785127;29;20141;-51
2021/10/25 00:04:20;;;;;;;8.57;7.00;;;22.70;35.80;;;;;;4785507;29;20047;-54
2021/10/25 00:06:47;;;;;;;9.60;7.35;;;22.70;35.90;;;;;;4785285;29;20059;-52
2021/10/25 00:09:15;;;;;;;9.57;7.32;;;22.70;35.90;;;;;;4768088;29;20146;-50
2021/10/25 00:11:42;;;;;;;10.13;7.53;;;22.70;35.90;;;;;;4785245;29;20098;-53
2021/10/25 00:14:11;;;;;;;9.32;7.68;;;22.70;35.90;;;;;;4785110;29;20065;-52
2021/10/25 00:16:39;;;;;;;9.60;7.30;;;22.70;35.90;;;;;;4785142;29;20079;-54
2021/10/25 00:19:07;;;;;;;11.15;7.53;;;22.70;36.00;;;;;;4767470;29;20056;-51
2021/10/25 00:21:35;;;;;;;9.98;7.60;;;22.70;36.00;;;;;;4784919;29;20057;-53
2021/10/25 00:24:03;;;;;;;10.70;7.97;;;22.70;36.00;;;;;;4784917;29;20590;-52
2021/10/25 00:26:31;;;;;;;10.00;6.95;;;22.70;36.00;;;;;;4783531;30;20326;-50
2021/10/25 00:28:58;;;;;;;10.52;7.93;;;22.60;35.90;;;;;;4768344;29;20055;-56
2021/10/25 00:31:25;;;;;;;9.45;6.97;;;22.60;36.00;;;;;;4783954;30;20059;-52
2021/10/25 00:33:53;;;;;;;10.35;6.82;;;22.60;36.00;;;;;;4784855;29;20054;-53
2021/10/25 00:36:20;;;;;;;11.38;7.72;;;22.70;36.00;;;;;;4784750;29;20086;-50
2021/10/25 00:38:48;;;;;;;9.25;7.43;;;22.70;36.10;;;;;;4772411;29;20051;-54
2021/10/25 00:41:15;;;;;;;8.20;6.45;;;22.60;36.00;;;;;;4776019;29;20534;-54
2021/10/25 00:43:43;;;;;;;8.30;6.50;;;22.60;36.00;;;;;;4766556;30;20094;-54
2021/10/25 00:46:10;;;;;;;9.05;6.97;;;22.60;36.00;;;;;;4765498;30;20134;-50
2021/10/25 00:48:38;;;;;;;9.68;7.50;;;22.60;36.00;;;;;;4763504;30;20070;-52
2021/10/25 00:51:09;;;;;;;9.38;7.63;;;22.60;36.10;;;;;;4778760;29;20048;-52
2021/10/25 00:53:37;;;;;;;10.02;7.05;;;22.60;36.10;;;;;;4784532;29;20146;-53
2021/10/25 00:56:05;;;;;;;9.70;7.53;;;22.60;36.10;;;;;;4784463;29;20090;-53
2021/10/25 00:58:33;;;;;;;9.05;7.05;;;22.60;36.10;;;;;;4771916;29;21057;-52
2021/10/25 01:01:00;;;;;;;8.38;6.60;;;22.60;36.10;;;;;;4779283;29;20149;-50
2021/10/25 01:03:28;;;;;;;7.30;6.38;;;22.60;36.10;;;;;;4784553;29;20062;-51
2021/10/25 01:05:56;;;;;;;10.13;6.88;;;22.60;36.10;;;;;;4784270;29;20059;-52
2021/10/25 01:08:26;;;;;;;9.20;6.93;;;22.60;36.10;;;;;;4771691;29;20059;-52
2021/10/25 01:10:53;;;;;;;8.45;6.43;;;22.60;36.10;;;;;;4779047;29;20529;-54
2021/10/25 01:13:20;;;;;;;9.82;6.78;;;22.60;36.10;;;;;;4784251;29;20083;-51
2021/10/25 01:15:47;;;;;;;8.57;6.50;;;22.60;36.10;;;;;;4782933;29;20518;-49
2021/10/25 01:18:16;;;;;;;9.13;7.07;;;22.60;36.10;;;;;;4776167;29;20146;-52
2021/10/25 01:20:44;;;;;;;9.52;6.93;;;22.60;36.10;;;;;;4777684;29;20074;-54
2021/10/25 01:23:11;;;;;;;8.68;6.47;;;22.60;36.00;;;;;;4783902;29;20204;-51
2021/10/25 01:25:38;;;;;;;10.55;6.45;;;22.60;36.00;;;;;;4783751;29;20086;-52
2021/10/25 01:28:05;;;;;;;7.85;6.47;;;22.60;36.00;;;;;;4776807;29;20087;-53
2021/10/25 01:30:33;;;;;;;8.40;6.53;;;22.60;36.00;;;;;;4773895;29;20086;-52
2021/10/25 01:33:00;;;;;;;8.30;6.47;;;22.60;36.10;;;;;;4783869;29;20083;-54
2021/10/25 01:35:27;;;;;;;8.70;6.30;;;22.60;36.00;;;;;;4783875;29;20138;-51
2021/10/25 01:37:54;;;;;;;8.95;6.15;;;22.60;36.00;;;;;;4777054;29;20205;-54
2021/10/25 01:40:21;;;;;;;8.15;7.00;;;22.60;36.00;;;;;;4773552;29;20146;-53
2021/10/25 01:42:48;;;;;;;9.80;6.75;;;22.60;36.00;;;;;;4783646;29;20059;-51
2021/10/25 01:45:16;;;;;;;9.30;6.93;;;22.60;36.00;;;;;;4783995;29;20079;-53
2021/10/25 01:47:43;;;;;;;8.57;6.00;;;22.60;36.00;;;;;;4777025;29;20059;-54
2021/10/25 01:50:10;;;;;;;8.20;6.68;;;22.60;36.10;;;;;;4772190;29;20055;-50
2021/10/25 01:52:37;;;;;;;8.20;6.28;;;22.60;36.10;;;;;;4783478;29;20150;-53
2021/10/25 01:55:05;;;;;;;8.20;6.25;;;22.60;36.10;;;;;;4783427;29;20142;-52
2021/10/25 01:57:32;;;;;;;8.75;6.55;;;22.60;36.10;;;;;;4781577;29;20051;-53
2021/10/25 02:00:00;;;;;;;8.70;6.90;;;22.50;36.00;;;;;;4768724;29;20145;-50
2021/10/25 02:02:27;;;;;;;10.60;6.00;;;22.50;36.10;;;;;;4782942;29;20134;-49
2021/10/25 02:04:54;;;;;;;8.65;6.68;;;22.60;36.10;;;;;;4783562;29;20098;-50
2021/10/25 02:07:21;;;;;;;7.40;5.40;;;22.60;36.10;;;;;;4783623;29;20059;-53
2021/10/25 02:09:48;;;;;;;10.38;6.47;;;22.50;36.10;;;;;;4766097;29;20087;-49
2021/10/25 02:12:15;;;;;;;9.85;6.43;;;22.60;36.10;;;;;;4783751;29;20134;-50
2021/10/25 02:14:42;;;;;;;7.78;5.82;;;22.60;36.10;;;;;;4782178;29;20134;-49
2021/10/25 02:17:09;;;;;;;8.82;5.60;;;22.50;36.10;;;;;;4767201;30;20141;-53
2021/10/25 02:19:37;;;;;;;7.75;5.65;;;22.60;36.10;;;;;;4765757;29;20150;-50
2021/10/25 02:22:06;;;;;;;7.38;5.78;;;22.50;36.10;;;;;;4783152;29;20061;-49
2021/10/25 02:24:33;;;;;;;8.10;5.57;;;22.50;36.10;;;;;;4782915;29;20082;-49
2021/10/25 02:27:03;;;;;;;8.40;5.55;;;22.50;36.10;;;;;;4783214;29;20055;-51
2021/10/25 02:29:35;;;;;;;8.70;6.22;;;22.50;36.10;;;;;;4765687;29;20079;-49
2021/10/25 02:32:05;;;;;;;9.80;6.05;;;22.50;36.10;;;;;;4783158;29;20119;-52
2021/10/25 02:34:33;;;;;;;6.80;5.28;;;22.50;36.20;;;;;;4782945;29;20569;-50
2021/10/25 02:37:00;;;;;;;8.20;5.78;;;22.50;36.20;;;;;;4783349;29;20446;-52
2021/10/25 02:39:28;;;;;;;6.45;5.15;;;22.50;36.20;;;;;;4766058;29;20146;-52
2021/10/25 02:41:56;;;;;;;8.48;6.25;;;22.50;36.20;;;;;;4781924;30;20055;-54
2021/10/25 02:44:24;;;;;;;8.40;5.82;;;22.50;36.20;;;;;;4781569;29;20051;-53
2021/10/25 02:46:52;;;;;;;7.35;5.15;;;22.50;36.20;;;;;;4783470;29;20651;-52
2021/10/25 02:49:20;;;;;;;5.95;5.30;;;22.50;36.20;;;;;;4765296;29;20067;-52
2021/10/25 02:51:47;;;;;;;8.13;5.88;;;22.40;36.10;;;;;;4782966;29;20097;-55
2021/10/25 02:54:15;;;;;;;7.95;5.50;;;22.50;36.20;;;;;;4782895;29;20801;-53
2021/10/25 02:56:42;;;;;;;7.68;6.13;;;22.50;36.10;;;;;;4783176;29;20065;-54
2021/10/25 02:59:09;;;;;;;7.10;4.93;;;22.40;36.10;;;;;;4765635;29;20138;-53
2021/10/25 03:01:38;;;;;;;6.95;5.47;;;22.50;36.10;;;;;;4783014;29;20086;-53
2021/10/25 03:04:06;;;;;;;7.50;5.65;;;22.50;36.10;;;;;;4783010;29;20099;-54
2021/10/25 03:06:35;;;;;;;8.15;5.85;;;22.50;36.10;;;;;;4782588;29;20425;-53
2021/10/25 03:09:03;;;;;;;6.43;5.22;;;22.50;36.10;;;;;;4765140;29;20146;-52
2021/10/25 03:11:30;;;;;;;8.20;5.90;;;22.50;36.10;;;;;;4782911;29;20056;-52
2021/10/25 03:13:58;;;;;;;7.82;5.35;;;22.50;36.10;;;;;;4783390;29;20047;-54
2021/10/25 03:16:25;;;;;;;9.02;5.50;;;22.50;36.10;;;;;;4786081;29;20055;-53
2021/10/25 03:18:53;;;;;;;7.10;5.82;;;22.50;36.10;;;;;;4772846;29;20055;-53
2021/10/25 03:21:22;;;;;;;8.05;5.47;;;22.50;36.10;;;;;;4785354;29;20509;-52
2021/10/25 03:23:50;;;;;;;5.75;4.72;;;22.50;36.10;;;;;;4786064;29;20090;-53
2021/10/25 03:26:18;;;;;;;8.05;5.60;;;22.50;36.10;;;;;;4785992;29;20059;-53
2021/10/25 03:28:46;;;;;;;7.40;5.50;;;22.50;36.10;;;;;;4774013;29;20478;-53
2021/10/25 03:31:13;;;;;;;6.47;4.38;;;22.50;36.10;;;;;;4779711;29;20506;-49
2021/10/25 03:33:40;;;;;;;6.20;4.43;;;22.50;36.10;;;;;;4784416;30;20514;-54
2021/10/25 03:36:08;;;;;;;6.35;5.28;;;22.50;36.10;;;;;;4784380;29;20057;-50
2021/10/25 03:38:38;;;;;;;5.60;4.75;;;22.50;36.10;;;;;;4772896;29;20152;-54
2021/10/25 03:41:14;;;;;;;6.63;5.13;;;22.40;36.10;;;;;;4780032;29;20055;-51
2021/10/25 03:43:47;;;;;;;7.07;4.68;;;22.40;36.10;;;;;;4778304;30;20083;-54
2021/10/25 03:46:34;;;;;;;7.13;5.05;;;22.40;36.10;;;;;;4784926;29;20490;-54
2021/10/25 03:49:14;;;;;;;7.03;5.43;;;22.40;36.20;;;;;;4759822;30;20146;-49
2021/10/25 03:51:43;;;;;;;7.15;5.28;;;22.40;36.20;;;;;;4776155;29;20066;-50
2021/10/25 03:54:23;;;;;;;5.13;4.57;;;22.40;36.20;;;;;;4767419;30;20086;-49
2021/10/25 03:57:27;;;;;;;5.63;4.50;;;22.40;36.20;;;;;;4767114;29;20095;-54
2021/10/25 04:00:00;;;;;;;6.30;4.75;;;22.40;36.20;;;;;;4769429;29;20585;-52
2021/10/25 04:02:55;;;;;;;6.63;5.25;;;22.40;36.20;;;;;;4776242;30;20568;-49
2021/10/25 04:13:58;;;;;;;6.13;4.72;;;22.40;36.20;;;;;;4782132;30;20055;-53
2021/10/25 04:27:41;;;;;;;6.07;5.00;;;22.40;36.30;;;;;;4772764;30;20055;-54
2021/10/25 04:30:09;;;;;;;8.07;4.97;;;22.40;36.30;;;;;;4769590;30;20058;-53
2021/10/25 04:32:37;;;;;;;5.88;4.40;;;22.40;36.20;;;;;;4783757;30;20082;-52
2021/10/25 04:35:05;;;;;;;6.25;4.75;;;22.40;36.20;;;;;;4781296;29;20086;-49
2021/10/25 04:37:32;;;;;;;6.55;4.75;;;22.30;36.20;;;;;;4781219;29;20055;-51
2021/10/25 04:40:00;;;;;;;6.30;4.30;;;22.40;36.20;;;;;;4762064;29;20166;-49
2021/10/25 04:42:27;;;;;;;7.15;4.70;;;22.30;36.10;;;;;;4777779;29;20057;-51
2021/10/25 04:44:55;;;;;;;5.10;3.95;;;22.40;36.20;;;;;;4781996;29;20134;-52
2021/10/25 04:47:22;;;;;;;6.72;4.97;;;22.40;36.20;;;;;;4782630;29;20567;-50
2021/10/25 04:49:49;;;;;;;5.03;4.10;;;22.30;36.10;;;;;;4758734;29;20093;-52
2021/10/25 04:52:16;;;;;;;5.65;4.20;;;22.40;36.20;;;;;;4774352;29;20138;-53
2021/10/25 04:54:43;;;;;;;4.10;3.42;;;22.30;36.70;;;;;;4776004;29;20051;-49
2021/10/25 04:57:10;;;;;;;5.28;3.70;;;22.30;36.20;;;;;;4777394;30;20143;-54
2021/10/25 04:59:38;;;;;;;5.97;3.70;;;22.30;36.10;;;;;;4758291;29;20145;-53
2021/10/25 05:02:05;;;;;;;6.72;4.70;;;22.30;36.20;;;;;;4775632;30;20051;-54
2021/10/25 05:04:32;;;;;;;6.95;4.07;;;22.30;36.20;;;;;;4776294;29;20048;-54
2021/10/25 05:06:59;;;;;;;7.78;4.28;;;22.30;36.00;;;;;;4777280;29;20139;-52
2021/10/25 05:09:26;;;;;;;4.90;3.83;;;22.30;35.70;;;;;;4760166;29;20051;-52
2021/10/25 05:11:53;;;;;;;5.95;4.70;;;22.30;35.50;;;;;;4777093;30;20464;-54
2021/10/25 05:14:21;;;;;;;5.00;4.50;;;22.30;35.40;;;;;;4779225;29;21387;-49
2021/10/25 05:16:48;;;;;;;4.63;4.05;;;22.40;35.30;;;;;;4780304;30;20409;-52
2021/10/25 05:19:15;;;;;;;6.03;4.45;;;22.30;35.20;;;;;;4764964;29;20051;-51
2021/10/25 05:21:42;;;;;;;5.03;3.85;;;22.30;35.10;;;;;;4775717;30;20059;-51
2021/10/25 05:24:09;;;;;;;4.85;4.28;;;22.30;35.10;;;;;;4777010;29;20051;-53
2021/10/25 05:26:36;;;;;;;5.38;4.53;;;22.40;35.20;;;;;;4772338;30;20086;-54
2021/10/25 05:29:04;;;;;;;5.72;4.32;;;22.30;35.10;;;;;;4756608;29;20082;-54
2021/10/25 05:31:32;;;;;;;4.72;4.05;;;22.30;35.10;;;;;;4775233;29;20066;-51
2021/10/25 05:33:59;;;;;;;5.45;4.03;;;22.30;35.10;;;;;;4771978;30;20197;-53
2021/10/25 05:36:26;;;;;;;5.47;3.80;;;22.30;35.00;;;;;;4775539;29;20490;-54
2021/10/25 05:38:53;;;;;;;5.18;4.25;;;22.30;35.00;;;;;;4760208;29;20124;-53
2021/10/25 05:41:20;;;;;;;5.75;4.35;;;22.30;34.90;;;;;;4765555;30;20792;-53
2021/10/25 05:43:48;;;;;;;7.05;4.30;;;22.30;34.90;;;;;;4771500;30;20069;-56
2021/10/25 05:46:15;;;;;;;14.70;4.35;;;22.30;34.90;;;;;;4772092;29;20471;-56
2021/10/25 05:48:42;;;;;;;5.75;4.13;;;22.30;34.90;;;;;;4756823;29;20532;-56
2021/10/25 05:51:10;;;;;;;5.20;3.97;;;22.30;35.20;;;;;;4768929;29;20138;-53
2021/10/25 05:53:37;;;;;;;6.53;4.40;;;22.30;35.30;;;;;;4769629;30;20086;-56
2021/10/25 05:56:05;;;;;;;5.00;4.05;;;22.40;35.40;;;;;;4772296;30;20502;-56
2021/10/25 05:58:32;;;;;;;5.95;4.40;;;22.40;35.40;;;;;;4762725;29;20055;-56
2021/10/25 06:01:02;;;;;;;5.60;3.92;;;22.40;35.40;;;;;;4766928;30;20565;-56
2021/10/25 06:03:33;;;;;;;;;;;22.50;35.30;;;;;;4772278;30;20146;-54
2021/10/25 06:06:01;;;;;;;6.38;4.47;;;22.50;35.30;;;;;;4771529;30;20380;-56
2021/10/25 06:08:29;;;;;;;4.85;4.00;;;22.50;35.20;;;;;;4764683;29;20043;-51
2021/10/25 06:10:56;;;;;;;7.82;4.40;;;22.60;35.20;;;;;;4763993;30;20114;-53
2021/10/25 06:13:28;;;;;;;4.95;4.13;;;22.60;35.20;;;;;;4772295;29;20070;-54
2021/10/25 06:16:09;;;;;;;6.95;4.20;;;22.60;35.20;;;;;;4771586;29;20134;-54
2021/10/25 06:18:37;;;;;;;5.68;4.30;;;22.70;35.20;;;;;;4761455;29;20145;-53
2021/10/25 06:21:05;;;;;;;7.50;4.60;;;22.70;35.30;;;;;;4769249;29;20051;-55
2021/10/25 06:23:33;;;;;;;6.82;4.45;;;22.80;35.50;;;;;;4774006;30;20227;-55
2021/10/25 06:26:00;;;;;;;6.22;4.70;;;22.90;35.60;;;;;;4773705;30;20047;-56
2021/10/25 06:28:27;;;;;;;6.70;4.63;;;22.90;35.50;;;;;;4764248;29;20593;-49
2021/10/25 06:31:03;;;;;;;8.52;5.65;;;22.90;35.40;;;;;;4761974;29;20359;-53
2021/10/25 06:33:36;;;;;;;6.85;4.68;;;23.00;35.50;;;;;;4768904;30;20062;-54
2021/10/25 06:36:07;;;;;;;5.95;4.75;;;23.00;35.40;;;;;;4772122;30;20206;-57
2021/10/25 06:38:41;;;;;;;7.40;5.20;;;23.00;35.30;;;;;;4761744;29;20059;-52
2021/10/25 06:41:08;;;;;;;6.70;5.28;;;23.10;35.30;;;;;;4769771;29;20054;-52
2021/10/25 06:43:36;;;;;;;10.93;5.13;;;23.10;35.20;;;;;;4774492;29;20804;-55
2021/10/25 06:46:05;;;;;;;7.43;5.00;;;23.20;35.30;;;;;;4773606;30;20595;-55
2021/10/25 06:48:32;;;;;;;8.95;4.70;;;23.20;35.50;;;;;;4764928;29;20063;-51
2021/10/25 06:50:59;;;;;;;9.32;5.40;;;23.30;35.40;;;;;;4764120;29;20156;-56
2021/10/25 06:53:26;;;;;;;7.28;5.00;;;23.30;35.30;;;;;;4775249;29;20545;-53
2021/10/25 06:55:53;;;;;;;7.55;5.22;;;23.30;35.30;;;;;;4776648;30;20083;-54
2021/10/25 06:58:21;;;;;;;8.13;5.15;;;23.30;35.30;;;;;;4766118;29;20150;-55
2021/10/25 07:00:49;;;;;;;10.00;5.28;;;23.30;35.10;;;;;;4766516;30;20391;-53
2021/10/25 07:03:16;;;;;;;9.30;5.75;;;23.40;35.10;;;;;;4777672;29;20067;-53
2021/10/25 07:05:44;;;;;;;8.90;5.85;;;23.40;35.10;;;;;;4778240;30;20190;-55
2021/10/25 07:08:14;;;;;;;9.25;5.35;;;23.50;35.20;;;;;;4769805;29;20082;-58
2021/10/25 07:10:41;;;;;;;8.88;5.82;;;23.50;35.20;;;;;;4767268;30;20058;-56
2021/10/25 07:13:17;;;;;;;9.13;5.47;;;23.50;35.20;;;;;;4777042;30;20063;-55
2021/10/25 07:15:49;;;;;;;10.07;6.30;;;23.50;35.10;;;;;;4777980;29;20055;-57
2021/10/25 07:18:29;;;;;;;8.75;5.78;;;23.60;35.20;;;;;;4767849;29;20082;-55
2021/10/25 07:21:15;;;;;;;8.50;5.57;;;23.60;35.20;;;;;;4762222;29;20043;-54
2021/10/25 07:26:49;;;;;;;8.75;5.25;;;23.70;35.60;;;;;;4777020;29;20745;-56
2021/10/25 08:05:41;;;;;;;8.55;5.13;;;24.10;34.00;;;;;;4763488;30;20054;-56
2021/10/25 08:08:28;;;;;;;8.15;5.57;;;24.20;33.90;;;;;;4768922;29;20048;-57
2021/10/25 08:11:00;;;;;;;9.80;5.28;;;24.20;33.90;;;;;;4758574;30;20099;-57
2021/10/25 08:13:36;;;;;;;5.97;4.90;;;24.30;34.10;;;;;;4777584;30;20051;-56
2021/10/25 08:16:21;;;;;;;8.38;5.30;;;24.30;34.00;;;;;;4771697;30;20060;-56
2021/10/25 08:19:10;;;;;;;6.05;4.30;;;24.30;34.10;;;;;;4762827;29;20078;-57
2021/10/25 08:21:37;;;;;;;6.80;4.95;;;24.30;34.00;;;;;;4774680;29;21260;-56
2021/10/25 08:24:05;;;;;;;8.65;4.63;;;24.40;34.00;;;;;;4777794;29;20043;-57
2021/10/25 08:26:32;;;;;;;10.00;4.30;;;24.50;34.10;;;;;;4776908;29;20102;-57
2021/10/25 08:29:03;;;;;;;10.43;4.75;;;24.50;34.20;;;;;;4762556;29;20069;-53
2021/10/25 08:31:33;;;;;;;6.78;4.10;;;24.50;34.40;;;;;;4765884;30;20071;-55
2021/10/25 08:34:25;;;;;;;4.85;3.90;;;24.50;34.20;;;;;;4774231;30;20058;-55
2021/10/25 08:39:47;;;;;;;5.13;4.18;;;24.60;33.90;;;;;;4754934;29;20607;-56
2021/10/25 08:42:17;;;;;;;4.35;3.58;;;24.60;33.70;;;;;;4776963;30;20086;-57
2021/10/25 08:44:47;;;;;;;6.75;4.03;;;24.70;33.60;;;;;;4773868;29;20142;-54
2021/10/25 08:47:18;;;;;;;4.10;3.55;;;24.70;33.60;;;;;;4775227;29;20147;-55
2021/10/25 08:49:45;;;;;;;4.70;4.18;;;24.70;33.40;;;;;;4752546;29;20066;-55
2021/10/25 08:52:12;;;;;;;5.95;3.47;;;24.70;33.30;;;;;;4774545;29;20077;-52
2021/10/25 08:54:41;;;;;;;5.15;3.42;;;24.70;33.20;;;;;;4771290;29;20481;-56
2021/10/25 08:57:08;;;;;;;6.50;3.50;;;24.70;33.30;;;;;;4768720;30;20065;-56
2021/10/25 08:59:36;;;;;;;4.72;3.63;;;24.70;33.30;;;;;;4760775;29;20091;-56
2021/10/25 09:02:07;;;;;;;5.38;3.78;;;24.80;33.40;;;;;;4768617;29;20131;-57
2021/10/25 09:04:35;;;;;;;5.22;3.60;;;24.80;33.40;;;;;;4777199;30;20509;-56
2021/10/25 09:07:03;;;;;;;4.40;3.25;;;24.90;33.30;;;;;;4771941;29;20582;-57
2021/10/25 09:09:31;;;;;;;6.30;3.00;;;24.90;33.10;;;;;;4757413;29;20077;-57
2021/10/25 09:12:08;;;;;;;3.50;2.80;;;24.90;33.00;;;;;;4767733;29;20083;-57
2021/10/25 09:14:35;;;;;;;6.55;3.10;;;24.90;32.90;;;;;;4773429;30;20059;-56
2021/10/25 09:17:06;;;;;;;5.53;3.40;;;25.00;32.80;;;;;;4772355;29;20181;-55
2021/10/25 09:19:35;;;;;;;5.35;2.65;;;25.00;33.10;;;;;;4751441;29;20055;-55
2021/10/25 09:22:13;;;;;;;6.90;3.33;;;25.00;33.60;;;;;;4774590;29;20130;-57
2021/10/25 09:24:53;;;;;;;5.20;2.88;;;25.10;34.00;;;;;;4771174;29;20095;-54
2021/10/25 09:27:40;;;;;;;3.55;3.28;;;25.10;34.10;;;;;;4773376;30;20104;-56
2021/10/25 09:30:15;;;;;;;3.50;2.70;;;25.10;34.20;;;;;;4755958;30;20102;-56
2021/10/25 09:32:44;;;;;;;3.88;2.72;;;25.10;34.10;;;;;;4776104;30;20057;-56
2021/10/25 09:35:25;;;;;;;5.35;3.20;;;25.20;33.90;;;;;;4774509;30;20575;-56
2021/10/25 09:38:05;;;;;;;4.28;3.00;;;25.20;33.40;;;;;;4771938;29;20083;-56
2021/10/25 09:40:51;;;;;;;2.90;2.50;;;25.20;33.10;;;;;;4769902;29;20167;-56
2021/10/25 09:45:03;;;;;;;3.92;2.40;;;25.20;33.00;;;;;;4774578;30;20155;-55
2021/10/25 09:49:33;;;;;;;3.88;2.90;;;25.30;32.70;;;;;;4759901;29;20087;-56
2021/10/25 09:52:05;;;;;;;2.78;2.42;;;25.20;32.60;;;;;;4759365;30;20083;-55
2021/10/25 09:54:33;;;;;;;4.35;2.50;;;25.20;32.50;;;;;;4776543;29;20059;-55
2021/10/25 09:57:10;;;;;;;3.95;2.47;;;25.20;32.60;;;;;;4776646;29;20051;-55
2021/10/25 09:59:53;;;;;;;2.30;2.10;;;25.20;32.30;;;;;;4755982;29;20052;-55
2021/10/25 10:02:22;;;;;;;5.97;2.60;;;25.20;32.30;;;;;;4770876;29;20121;-55
2021/10/25 10:04:57;;;;;;;6.55;3.00;;;25.30;32.30;;;;;;4772294;30;20059;-54
2021/10/25 10:07:25;;;;;;;4.13;2.78;;;25.30;32.20;;;;;;4774241;29;20170;-55
2021/10/25 10:09:54;;;;;;;2.88;2.40;;;25.30;32.20;;;;;;4756255;29;20150;-57
2021/10/25 10:12:24;;;;;;;4.55;2.60;;;25.30;32.40;;;;;;4777779;29;20051;-56
2021/10/25 10:14:57;;;;;;;9.13;2.80;;;25.30;32.40;;;;;;4774710;29;20073;-55
2021/10/25 10:17:48;;;;;;;2.83;2.13;;;25.30;32.60;;;;;;4774955;29;20051;-55
2021/10/25 10:20:27;;;;;;;3.95;2.40;;;25.30;32.70;;;;;;4750281;30;20067;-57
2021/10/25 10:22:59;;;;;;;2.97;2.40;;;25.40;32.70;;;;;;4774133;30;20417;-55
2021/10/25 10:25:32;;;;;;;5.15;2.63;;;25.40;32.80;;;;;;4769750;30;20142;-53
2021/10/25 10:28:10;;;;;;;3.05;2.42;;;25.40;32.90;;;;;;4767526;29;20054;-55
2021/10/25 10:30:56;;;;;;;3.15;2.72;;;25.40;32.90;;;;;;4758736;29;20521;-53
2021/10/25 10:33:40;;;;;;;2.90;1.88;;;25.50;33.00;;;;;;4777109;29;20055;-55
2021/10/25 10:36:23;;;;;;;2.95;1.85;;;25.50;33.00;;;;;;4777136;30;20570;-55
2021/10/25 10:38:58;;;;;;;3.85;2.67;;;25.60;33.60;;;;;;4775474;29;20142;-55
2021/10/25 10:41:37;;;;;;;5.40;2.38;;;25.60;32.90;;;;;;4768528;29;20051;-55
2021/10/25 10:44:07;;;;;;;4.68;2.33;;;25.60;32.90;;;;;;4772093;29;20055;-55
2021/10/25 10:46:51;;;;;;;3.45;2.33;;;25.70;33.00;;;;;;4773963;29;20083;-53
2021/10/25 10:49:26;;;;;;;5.35;2.38;;;25.60;32.60;;;;;;4753333;29;20108;-54
2021/10/25 10:52:35;;;;;;;4.22;2.60;;;25.70;32.50;;;;;;4774111;30;20079;-54
2021/10/25 10:55:22;;;;;;;3.13;2.72;;;25.70;32.30;;;;;;4774358;29;20483;-53
2021/10/25 10:58:25;;;;;;;2.92;2.30;;;25.80;32.10;;;;;;4767137;29;20574;-55
2021/10/25 11:00:44;;;;;;;3.10;2.80;;;25.80;32.00;;;;;;4763991;29;20411;-55
2021/10/25 11:03:21;;;;;;;2.10;1.90;;;25.80;31.80;;;;;;4769528;30;20052;-54
2021/10/25 11:06:05;;;;;;;3.28;2.60;;;25.80;31.70;;;;;;4772609;29;20079;-55
2021/10/25 11:08:34;;;;;;;2.63;2.30;;;25.80;31.50;;;;;;4763803;29;20425;-55
2021/10/25 11:11:04;;;;;;;;;;;25.80;31.40;;;;;;4759470;30;20138;-55
2021/10/25 11:13:35;;;;;;;3.15;2.10;;;25.80;31.40;;;;;;4769371;30;19973;-55
2021/10/25 11:16:07;;;;;;;2.67;2.25;;;25.80;31.40;;;;;;4771466;29;20047;-54
2021/10/25 11:18:38;;;;;;;2.78;2.28;;;25.80;31.30;;;;;;4758499;29;20116;-53
2021/10/25 11:21:18;;;;;;;5.43;2.75;;;25.80;31.30;;;;;;4768065;29;20422;-54
2021/10/25 11:23:57;;;;;;;4.83;2.03;;;25.80;31.30;;;;;;4772465;29;20482;-55
2021/10/25 11:26:36;;;;;;;5.22;2.65;;;25.80;31.30;;;;;;4774962;29;20606;-56
2021/10/25 11:29:10;;;;;;;1.90;1.70;;;25.80;31.30;;;;;;4749274;29;20055;-57
2021/10/25 11:31:46;;;;;;;3.78;2.25;;;25.70;31.20;;;;;;4769267;30;20116;-55
2021/10/25 11:34:21;;;;;;;3.85;2.00;;;25.80;31.20;;;;;;4772109;29;20091;-55
2021/10/25 11:37:01;;;;;;;3.35;2.25;;;25.80;31.20;;;;;;4775933;30;20529;-54
2021/10/25 11:39:50;;;;;;;3.35;2.08;;;25.80;31.20;;;;;;4761069;29;20107;-56
2021/10/25 11:42:27;;;;;;;2.77;1.73;;;25.80;31.20;;;;;;4788174;29;20051;-56
2021/10/25 11:44:57;;;;;;;3.00;2.03;;;25.80;31.10;;;;;;4776240;30;20581;-56
2021/10/25 11:47:27;;;;;;;3.78;2.17;;;25.80;31.10;;;;;;4778696;30;20055;-55
2021/10/25 11:50:00;;;;;;;3.80;2.28;;;25.80;31.10;;;;;;4753709;29;20158;-53
2021/10/25 11:52:43;;;;;;;2.40;1.63;;;25.80;30.90;;;;;;4776469;29;20154;-56
2021/10/25 11:55:14;;;;;;;2.75;1.80;;;25.70;30.70;;;;;;4779702;29;20120;-55
2021/10/25 11:57:50;;;;;;;1.98;1.83;;;25.80;30.70;;;;;;4776592;29;20054;-54
2021/10/25 12:00:19;;;;;;;3.40;2.00;;;25.70;30.60;;;;;;4757236;30;20100;-54
2021/10/25 12:02:47;;;;;;;2.60;1.95;;;25.70;30.60;;;;;;4774887;30;20117;-52
2021/10/25 12:05:20;;;;;;;1.88;1.65;;;25.80;30.60;;;;;;4776063;29;20087;-56
2021/10/25 12:07:53;;;;;;;3.47;2.17;;;25.80;30.60;;;;;;4770361;29;20146;-54
2021/10/25 12:10:23;;;;;;;2.67;1.83;;;25.80;30.80;;;;;;4757834;29;20147;-55
2021/10/25 12:12:58;;;;;;;5.28;1.80;;;25.80;30.90;;;;;;4778178;30;20047;-59
2021/10/25 12:15:27;;;;;;;3.15;1.75;;;25.80;31.10;;;;;;4775380;30;20138;-57
2021/10/25 12:17:58;;;;;;;2.85;2.05;;;25.80;31.20;;;;;;4768371;29;20086;-57
2021/10/25 12:20:33;;;;;;;2.58;1.60;;;25.80;31.30;;;;;;4775813;29;20554;-58
2021/10/25 12:23:22;;;;;;;2.95;1.50;;;25.80;31.30;;;;;;4773538;29;20074;-57
2021/10/25 12:25:54;;;;;;;;;;;25.80;31.30;;;;;;4776737;29;20276;-58
2021/10/25 12:28:21;;;;;;;1.95;1.83;;;25.90;31.40;;;;;;4768758;29;19933;-58
2021/10/25 12:30:51;;;;;;;1.95;1.55;;;25.90;31.50;;;;;;4765565;29;20062;-58
2021/10/25 12:33:20;;;;;;;1.80;1.70;;;25.90;31.50;;;;;;4777405;29;20094;-58
2021/10/25 12:35:48;;;;;;;2.67;1.67;;;25.90;31.50;;;;;;4782183;29;20047;-57
2021/10/25 12:38:21;;;;;;;2.20;1.98;;;25.90;31.40;;;;;;4771506;29;20085;-58
2021/10/25 12:40:54;;;;;;;1.65;1.55;;;26.00;31.50;;;;;;4763199;30;20059;-58
2021/10/25 12:43:22;;;;;;;1.83;1.60;;;26.00;31.40;;;;;;4786320;29;20576;-56
2021/10/25 12:45:58;;;;;;;3.40;2.08;;;26.00;31.40;;;;;;4777647;29;20487;-58
2021/10/25 12:48:26;;;;;;;2.83;1.90;;;26.00;31.40;;;;;;4771769;29;20048;-57
2021/10/25 12:51:02;;;;;;;2.03;1.75;;;26.00;31.30;;;;;;4766717;29;20109;-57
2021/10/25 12:53:31;;;;;;;4.03;2.28;;;26.00;31.30;;;;;;4776463;30;20079;-53
2021/10/25 12:56:00;;;;;;;3.22;1.73;;;26.00;31.20;;;;;;4775202;30;20756;-58
2021/10/25 12:58:28;;;;;;;2.78;1.60;;;26.00;31.30;;;;;;4767486;29;20526;-58
2021/10/25 13:00:55;;;;;;;2.30;1.50;;;26.10;31.30;;;;;;4762199;29;20079;-58
2021/10/25 13:03:29;;;;;;;1.85;1.65;;;26.10;31.30;;;;;;4775436;29;20050;-57
2021/10/25 13:06:05;;;;;;;3.80;1.52;;;26.10;31.20;;;;;;4772701;29;20142;-58
2021/10/25 13:08:33;;;;;;;1.92;1.73;;;26.10;31.10;;;;;;4763498;29;20096;-59
2021/10/25 13:11:01;;;;;;;4.43;2.00;;;26.10;31.10;;;;;;4768623;29;20116;-55
2021/10/25 13:13:33;;;;;;;1.73;1.58;;;26.10;31.10;;;;;;4778136;29;20079;-56
2021/10/25 13:16:02;;;;;;;1.73;1.63;;;26.10;31.10;;;;;;4776229;30;20063;-57
2021/10/25 13:18:29;;;;;;;3.08;1.98;;;26.10;31.00;;;;;;4763900;29;20057;-58
2021/10/25 13:20:58;;;;;;;2.72;1.92;;;26.10;31.00;;;;;;4767714;29;20086;-57
2021/10/25 13:23:25;;;;;;;2.63;1.92;;;26.10;31.00;;;;;;4779085;29;20855;-58
2021/10/25 13:25:52;;;;;;;2.33;1.88;;;26.20;31.10;;;;;;4777279;29;21844;-59
2021/10/25 13:28:20;;;;;;;2.47;2.15;;;26.20;31.00;;;;;;4767459;29;20055;-59
2021/10/25 13:30:48;;;;;;;3.03;1.75;;;26.20;31.00;;;;;;4768687;29;20062;-57
2021/10/25 13:33:15;;;;;;;1.90;1.80;;;26.20;31.00;;;;;;4775305;30;20074;-58
2021/10/25 13:35:43;;;;;;;2.63;1.90;;;26.20;30.90;;;;;;4774174;29;20086;-58
2021/10/25 13:38:11;;;;;;;2.03;1.85;;;26.20;31.00;;;;;;4766467;29;20054;-59
2021/10/25 13:40:38;;;;;;;2.30;2.10;;;26.20;31.10;;;;;;4767120;29;20502;-59
2021/10/25 13:43:25;;;;;;;2.45;2.13;;;26.20;31.20;;;;;;4779765;30;20524;-59
2021/10/25 13:45:53;;;;;;;2.63;2.30;;;26.20;31.20;;;;;;4777549;29;20111;-56
2021/10/25 13:48:20;;;;;;;2.95;2.50;;;26.20;31.10;;;;;;4768540;29;20059;-58
2021/10/25 13:50:47;;;;;;;2.95;2.45;;;26.20;31.10;;;;;;4764716;30;20155;-57
2021/10/25 13:53:14;;;;;;;6.40;2.33;;;26.30;31.20;;;;;;4776575;30;20291;-55
2021/10/25 13:55:41;;;;;;;4.60;2.75;;;26.30;31.20;;;;;;4771249;29;20145;-55
2021/10/25 13:58:09;;;;;;;3.60;2.78;;;26.30;31.20;;;;;;4768488;29;20106;-58
2021/10/25 14:00:37;;;;;;;3.15;2.83;;;26.20;31.10;;;;;;4767097;29;20161;-58
2021/10/25 14:03:04;;;;;;;2.90;2.25;;;26.30;31.10;;;;;;4779485;29;20055;-57
2021/10/25 14:05:32;;;;;;;2.97;2.53;;;26.30;31.10;;;;;;4777962;30;20047;-57
2021/10/25 14:08:00;;;;;;;3.15;2.13;;;26.30;31.60;;;;;;4772249;29;20055;-58
2021/10/25 14:10:40;;;;;;;4.00;2.47;;;26.30;31.00;;;;;;4772165;29;20097;-57
2021/10/25 14:13:27;;;;;;;3.78;3.13;;;26.30;31.00;;;;;;4779942;29;20580;-58